Time,TemperatureF,DewpointF,PressureIn,WindDirection,WindDirectionDegrees,WindSpeedMPH,WindSpeedGustMPH,Humidity,HourlyPrecipIn,Conditions,Clouds,dailyrainin,SoftwareType,DateUTC
2013-05-08 00:01:00,56.2,50.7,30.02,SW,225,0.4,1.1,82,0.00,,,0.00,WUHU216HW,2013-05-08 04:01:00,
2013-05-08 00:02:00,56.2,50.7,30.02,SW,225,0.4,0.4,82,0.00,,,0.00,WUHU216HW,2013-05-08 04:02:00,
2013-05-08 00:07:00,56.2,50.7,30.02,SW,225,0.9,0.9,82,0.00,,,0.00,WUHU216HW,2013-05-08 04:07:00,
2013-05-08 00:12:00,56.0,50.5,30.02,WNW,301,0.5,0.9,82,0.00,,,0.00,WUHU216HW,2013-05-08 04:12:00,
2013-05-08 00:17:00,56.2,50.7,30.02,West,270,1.3,1.3,82,0.00,,,0.00,WUHU216HW,2013-05-08 04:17:00,
2013-05-08 00:22:00,56.2,50.7,30.02,WSW,248,2.2,2.2,82,0.00,,,0.00,WUHU216HW,2013-05-08 04:22:00,
2013-05-08 00:28:00,56.2,50.7,30.02,West,270,0.0,2.2,82,0.00,,,0.00,WUHU216HW,2013-05-08 04:28:00,
2013-05-08 00:33:00,56.0,50.5,30.02,West,270,0.0,2.2,82,0.00,,,0.00,WUHU216HW,2013-05-08 04:33:00,
2013-05-08 00:38:00,56.0,50.5,30.02,WSW,248,0.4,0.4,82,0.00,,,0.00,WUHU216HW,2013-05-08 04:38:00,
2013-05-08 00:43:00,55.8,50.7,30.02,WSW,248,2.5,2.5,83,0.00,,,0.00,WUHU216HW,2013-05-08 04:43:00,
2013-05-08 00:48:00,55.8,50.7,30.02,West,270,1.8,2.5,83,0.00,,,0.00,WUHU216HW,2013-05-08 04:48:00,
2013-05-08 00:53:00,55.8,50.7,30.02,NW,315,0.4,2.5,83,0.00,,,0.00,WUHU216HW,2013-05-08 04:53:00,
2013-05-08 00:58:00,55.8,50.7,30.02,SW,225,1.1,1.8,83,0.00,,,0.00,WUHU216HW,2013-05-08 04:58:00,
2013-05-08 01:03:00,55.8,50.9,30.02,WSW,245,0.8,1.1,84,0.00,,,0.00,WUHU216HW,2013-05-08 05:03:00,
2013-05-08 01:09:00,55.8,50.9,30.02,WSW,248,0.7,1.1,84,0.00,,,0.00,WUHU216HW,2013-05-08 05:09:00,
2013-05-08 01:14:00,55.8,50.9,30.02,WSW,248,0.7,0.7,84,0.00,,,0.00,WUHU216HW,2013-05-08 05:14:00,
2013-05-08 01:19:00,56.0,51.1,30.01,North,0,0.0,0.7,84,0.00,,,0.00,WUHU216HW,2013-05-08 05:19:00,
2013-05-08 01:24:00,55.8,50.9,30.01,NNE,23,0.2,0.2,84,0.00,,,0.00,WUHU216HW,2013-05-08 05:24:00,
2013-05-08 01:29:00,55.8,50.9,30.01,NNE,23,0.0,0.2,84,0.00,,,0.00,WUHU216HW,2013-05-08 05:29:00,
2013-05-08 01:34:00,55.6,50.8,30.01,NW,315,0.0,0.2,84,0.00,,,0.00,WUHU216HW,2013-05-08 05:34:00,
2013-05-08 01:39:00,55.6,50.8,30.01,WSW,248,0.0,0.0,84,0.00,,,0.00,WUHU216HW,2013-05-08 05:39:00,
2013-05-08 01:44:00,55.4,50.9,30.01,WSW,257,1.3,1.8,85,0.00,,,0.00,WUHU216HW,2013-05-08 05:44:00,
2013-05-08 01:49:00,55.6,51.1,30.00,NE,45,0.0,1.8,85,0.00,,,0.00,WUHU216HW,2013-05-08 05:49:00,
2013-05-08 01:55:00,55.6,51.1,30.00,West,270,0.0,0.9,85,0.00,,,0.00,WUHU216HW,2013-05-08 05:55:00,
2013-05-08 02:00:00,55.4,50.9,30.00,WSW,248,0.0,0.9,85,0.00,,,0.00,WUHU216HW,2013-05-08 06:00:00,
2013-05-08 02:05:00,55.3,50.8,30.00,NNE,23,0.0,0.0,85,0.00,,,0.00,WUHU216HW,2013-05-08 06:05:00,
2013-05-08 02:10:00,55.1,51.0,30.00,NNE,23,0.4,0.4,86,0.00,,,0.00,WUHU216HW,2013-05-08 06:10:00,
2013-05-08 02:15:00,54.5,50.1,29.99,North,0,0.4,0.4,85,0.00,,,0.00,WUHU216HW,2013-05-08 06:15:00,
2013-05-08 02:20:00,54.4,50.2,29.99,North,0,0.4,0.4,86,0.00,,,0.00,WUHU216HW,2013-05-08 06:20:00,
2013-05-08 02:25:00,54.2,49.8,29.99,NNE,23,0.2,0.4,85,0.00,,,0.00,WUHU216HW,2013-05-08 06:25:00,
2013-05-08 02:30:00,54.0,49.9,29.99,NE,45,0.4,0.4,86,0.00,,,0.00,WUHU216HW,2013-05-08 06:30:00,
2013-05-08 02:36:00,53.6,49.5,29.99,NE,45,0.4,0.4,86,0.00,,,0.00,WUHU216HW,2013-05-08 06:36:00,
2013-05-08 02:41:00,53.5,49.3,29.99,North,0,0.0,0.4,86,0.00,,,0.00,WUHU216HW,2013-05-08 06:41:00,
2013-05-08 02:46:00,53.3,49.1,29.99,North,0,0.0,0.0,86,0.00,,,0.00,WUHU216HW,2013-05-08 06:46:00,
2013-05-08 02:51:00,53.1,49.0,29.99,ENE,68,0.0,0.0,86,0.00,,,0.00,WUHU216HW,2013-05-08 06:51:00,
2013-05-08 02:56:00,52.9,48.8,29.99,ESE,113,0.0,0.0,86,0.00,,,0.00,WUHU216HW,2013-05-08 06:56:00,
2013-05-08 03:01:00,52.7,48.6,29.99,South,180,1.8,1.8,86,0.00,,,0.00,WUHU216HW,2013-05-08 07:01:00,
2013-05-08 03:06:00,52.4,48.2,29.99,ESE,113,0.0,1.8,86,0.00,,,0.00,WUHU216HW,2013-05-08 07:06:00,
2013-05-08 03:11:00,52.2,48.1,29.99,SSE,158,0.7,1.8,86,0.00,,,0.00,WUHU216HW,2013-05-08 07:11:00,
2013-05-08 03:16:00,52.2,48.4,29.99,ENE,68,0.4,0.7,87,0.00,,,0.00,WUHU216HW,2013-05-08 07:16:00,
2013-05-08 03:22:00,52.2,49.1,29.99,ENE,68,0.0,0.7,89,0.00,,,0.00,WUHU216HW,2013-05-08 07:22:00,
2013-05-08 03:27:00,52.4,49.2,29.99,NNE,23,1.1,1.1,89,0.00,,,0.00,WUHU216HW,2013-05-08 07:27:00,
2013-05-08 03:32:00,52.6,49.4,29.99,SSE,158,0.0,1.1,89,0.00,,,0.00,WUHU216HW,2013-05-08 07:32:00,
2013-05-08 03:37:00,52.6,49.1,30.00,ESE,113,0.0,0.0,88,0.00,,,0.00,WUHU216HW,2013-05-08 07:37:00,
2013-05-08 03:42:00,52.2,48.7,30.00,SSE,158,1.0,1.1,88,0.00,,,0.00,WUHU216HW,2013-05-08 07:42:00,
2013-05-08 03:47:00,52.2,48.7,29.99,South,180,0.7,1.1,88,0.00,,,0.00,WUHU216HW,2013-05-08 07:47:00,
2013-05-08 03:52:00,52.2,48.7,29.99,South,180,0.7,0.7,88,0.00,,,0.00,WUHU216HW,2013-05-08 07:52:00,
2013-05-08 03:58:00,52.2,48.7,29.99,SE,135,0.0,0.7,88,0.00,,,0.00,WUHU216HW,2013-05-08 07:58:00,
2013-05-08 04:03:00,52.2,48.7,30.00,NE,45,0.0,0.7,88,0.00,,,0.00,WUHU216HW,2013-05-08 08:03:00,
2013-05-08 04:08:00,52.2,49.1,30.00,East,90,0.0,0.0,89,0.00,,,0.00,WUHU216HW,2013-05-08 08:08:00,
2013-05-08 04:13:00,52.2,49.1,30.00,SSE,158,0.0,0.0,89,0.00,,,0.00,WUHU216HW,2013-05-08 08:13:00,
2013-05-08 04:18:00,52.2,48.7,30.00,South,180,0.4,0.4,88,0.00,,,0.00,WUHU216HW,2013-05-08 08:18:00,
2013-05-08 04:23:00,51.7,48.2,30.00,South,180,1.1,1.1,88,0.00,,,0.00,WUHU216HW,2013-05-08 08:23:00,
2013-05-08 04:28:00,51.7,48.2,30.00,South,180,1.1,1.1,88,0.00,,,0.00,WUHU216HW,2013-05-08 08:28:00,
2013-05-08 04:33:00,51.3,47.8,30.00,West,270,0.0,1.1,88,0.00,,,0.00,WUHU216HW,2013-05-08 08:33:00,
2013-05-08 04:38:00,51.1,47.6,30.00,WSW,248,0.9,1.1,88,0.00,,,0.00,WUHU216HW,2013-05-08 08:38:00,
2013-05-08 04:43:00,51.1,47.6,30.00,SSW,203,0.0,0.9,88,0.00,,,0.00,WUHU216HW,2013-05-08 08:43:00,
2013-05-08 04:48:00,50.8,47.3,30.01,NE,45,0.0,0.9,88,0.00,,,0.00,WUHU216HW,2013-05-08 08:48:00,
2013-05-08 04:54:00,50.8,47.3,30.00,ENE,68,0.0,0.0,88,0.00,,,0.00,WUHU216HW,2013-05-08 08:54:00,
2013-05-08 04:59:00,50.8,47.6,30.00,NE,45,0.7,0.7,89,0.00,,,0.00,WUHU216HW,2013-05-08 08:59:00,
2013-05-08 05:04:00,50.8,47.6,30.00,West,270,0.0,0.7,89,0.00,,,0.00,WUHU216HW,2013-05-08 09:04:00,
2013-05-08 05:09:00,50.8,47.3,30.00,West,270,0.0,0.7,88,0.00,,,0.00,WUHU216HW,2013-05-08 09:09:00,
2013-05-08 05:14:00,50.6,47.1,30.00,ENE,68,0.0,0.0,88,0.00,,,0.00,WUHU216HW,2013-05-08 09:14:00,
2013-05-08 05:19:00,50.4,46.9,30.00,NE,45,0.0,0.0,88,0.00,,,0.00,WUHU216HW,2013-05-08 09:19:00,
2013-05-08 05:24:00,50.4,46.9,30.00,NE,45,0.0,0.0,88,0.00,,,0.00,WUHU216HW,2013-05-08 09:24:00,
2013-05-08 05:29:00,50.0,46.5,30.00,ESE,113,0.0,0.0,88,0.00,,,0.00,WUHU216HW,2013-05-08 09:29:00,
2013-05-08 05:34:00,49.7,46.3,30.00,North,0,0.0,0.0,88,0.00,,,0.00,WUHU216HW,2013-05-08 09:34:00,
2013-05-08 05:40:00,49.7,46.3,30.01,NNE,23,0.9,0.9,88,0.00,,,0.00,WUHU216HW,2013-05-08 09:40:00,
2013-05-08 05:45:00,50.0,46.5,30.01,NNE,23,0.9,0.9,88,0.00,,,0.00,WUHU216HW,2013-05-08 09:45:00,
2013-05-08 05:50:00,50.0,46.9,30.01,NE,45,0.2,0.9,89,0.00,,,0.00,WUHU216HW,2013-05-08 09:50:00,
2013-05-08 05:55:00,50.0,46.5,30.00,NE,45,0.0,0.9,88,0.00,,,0.00,WUHU216HW,2013-05-08 09:55:00,
2013-05-08 06:00:00,49.7,46.5,30.01,WSW,248,0.0,0.2,89,0.00,,,0.00,WUHU216HW,2013-05-08 10:00:00,
2013-05-08 06:05:00,49.7,46.5,30.01,West,270,0.0,0.0,89,0.00,,,0.00,WUHU216HW,2013-05-08 10:05:00,
2013-05-08 06:10:00,49.5,46.1,30.01,WNW,293,0.0,0.0,88,0.00,,,0.00,WUHU216HW,2013-05-08 10:10:00,
2013-05-08 06:15:00,49.5,46.4,30.01,NNW,338,0.0,0.0,89,0.00,,,0.00,WUHU216HW,2013-05-08 10:15:00,
2013-05-08 06:21:00,49.5,46.4,30.01,SSE,158,0.0,0.0,89,0.00,,,0.00,WUHU216HW,2013-05-08 10:21:00,
2013-05-08 06:26:00,49.3,46.2,30.01,SE,135,0.0,0.0,89,0.00,,,0.00,WUHU216HW,2013-05-08 10:26:00,
2013-05-08 06:31:00,49.3,46.2,30.02,SW,225,0.0,0.0,89,0.00,,,0.00,WUHU216HW,2013-05-08 10:31:00,
2013-05-08 06:36:00,49.1,46.1,30.02,West,270,0.0,0.0,89,0.00,,,0.00,WUHU216HW,2013-05-08 10:36:00,
2013-05-08 06:41:00,49.3,46.2,30.02,West,270,0.0,0.0,89,0.00,,,0.00,WUHU216HW,2013-05-08 10:41:00,
2013-05-08 06:46:00,49.7,46.8,30.02,WSW,248,0.0,0.0,90,0.00,,,0.00,WUHU216HW,2013-05-08 10:46:00,
2013-05-08 06:51:00,49.9,47.0,30.02,West,270,0.0,0.0,90,0.00,,,0.00,WUHU216HW,2013-05-08 10:51:00,
2013-05-08 06:57:00,50.0,47.2,30.02,West,270,0.7,0.7,90,0.00,,,0.00,WUHU216HW,2013-05-08 10:57:00,
2013-05-08 07:02:00,50.4,47.5,30.02,North,0,0.0,0.7,90,0.00,,,0.00,WUHU216HW,2013-05-08 11:02:00,
2013-05-08 07:07:00,50.8,47.9,30.03,SSE,158,0.0,0.7,90,0.00,,,0.00,WUHU216HW,2013-05-08 11:07:00,
2013-05-08 07:12:00,50.9,48.1,30.03,SSW,203,0.9,0.9,90,0.00,,,0.00,WUHU216HW,2013-05-08 11:12:00,
2013-05-08 07:17:00,50.9,48.1,30.03,SW,225,0.0,0.9,90,0.00,,,0.00,WUHU216HW,2013-05-08 11:17:00,
2013-05-08 07:22:00,51.3,48.4,30.03,WSW,248,0.4,0.9,90,0.00,,,0.00,WUHU216HW,2013-05-08 11:22:00,
2013-05-08 07:27:00,51.3,48.4,30.03,West,270,0.0,0.4,90,0.00,,,0.00,WUHU216HW,2013-05-08 11:27:00,
2013-05-08 07:32:00,51.7,48.8,30.03,West,270,0.4,1.1,90,0.00,,,0.00,WUHU216HW,2013-05-08 11:32:00,
2013-05-08 07:37:00,52.0,49.4,30.03,WNW,293,0.0,1.1,91,0.00,,,0.00,WUHU216HW,2013-05-08 11:37:00,
2013-05-08 07:42:00,52.4,49.8,30.03,WNW,293,0.0,0.4,91,0.00,,,0.00,WUHU216HW,2013-05-08 11:42:00,
2013-05-08 07:48:00,52.7,50.1,30.04,SSE,158,0.0,0.0,91,0.00,,,0.00,WUHU216HW,2013-05-08 11:48:00,
2013-05-08 07:53:00,53.1,50.5,30.04,West,266,1.6,1.8,91,0.00,,,0.00,WUHU216HW,2013-05-08 11:53:00,
2013-05-08 07:58:00,53.6,51.0,30.04,WSW,248,1.1,1.8,91,0.00,,,0.00,WUHU216HW,2013-05-08 11:58:00,
2013-05-08 08:03:00,54.0,51.1,30.04,WSW,248,1.6,2.0,90,0.00,,,0.00,WUHU216HW,2013-05-08 12:03:00,
2013-05-08 08:08:00,54.2,51.3,30.05,NW,315,0.4,2.0,90,0.00,,,0.00,WUHU216HW,2013-05-08 12:08:00,
2013-05-08 08:13:00,54.5,51.7,30.05,WSW,248,1.6,1.6,90,0.00,,,0.00,WUHU216HW,2013-05-08 12:13:00,
2013-05-08 08:18:00,55.8,52.9,30.05,WSW,248,2.2,2.2,90,0.00,,,0.00,WUHU216HW,2013-05-08 12:18:00,
2013-05-08 08:23:00,60.7,57.2,30.05,West,270,0.6,2.2,88,0.00,,,0.00,WUHU216HW,2013-05-08 12:23:00,
2013-05-08 08:29:00,61.9,57.1,30.05,West,270,2.5,2.5,84,0.00,,,0.00,WUHU216HW,2013-05-08 12:29:00,
2013-05-08 08:34:00,63.0,57.4,30.05,West,263,1.4,3.8,82,0.00,,,0.00,WUHU216HW,2013-05-08 12:34:00,
2013-05-08 08:39:00,63.7,57.4,30.05,WNW,293,3.6,3.8,80,0.00,,,0.00,WUHU216HW,2013-05-08 12:39:00,
2013-05-08 08:44:00,63.7,57.1,30.05,WNW,293,3.2,3.6,79,0.00,,,0.00,WUHU216HW,2013-05-08 12:44:00,
2013-05-08 08:49:00,63.5,56.2,30.05,West,270,1.6,3.6,77,0.00,,,0.00,WUHU216HW,2013-05-08 12:49:00,
2013-05-08 08:54:00,63.7,56.7,30.05,West,270,1.1,3.1,78,0.00,,,0.00,WUHU216HW,2013-05-08 12:54:00,
2013-05-08 08:59:00,64.1,56.7,30.05,WNW,294,0.6,1.6,77,0.00,,,0.00,WUHU216HW,2013-05-08 12:59:00,
2013-05-08 09:04:00,64.8,56.4,30.05,WSW,248,1.1,1.8,74,0.00,,,0.00,WUHU216HW,2013-05-08 13:04:00,
2013-05-08 09:10:00,65.2,56.7,30.05,NW,315,3.4,3.4,74,0.00,,,0.00,WUHU216HW,2013-05-08 13:10:00,
2013-05-08 09:15:00,65.5,56.3,30.05,NW,315,5.4,5.4,72,0.00,,,0.00,WUHU216HW,2013-05-08 13:15:00,
2013-05-08 09:20:00,66.1,56.0,30.06,South,180,5.1,5.4,70,0.00,,,0.00,WUHU216HW,2013-05-08 13:20:00,
2013-05-08 09:25:00,65.7,56.1,30.06,WSW,238,3.3,5.4,71,0.00,,,0.00,WUHU216HW,2013-05-08 13:25:00,
2013-05-08 09:30:00,65.7,56.4,30.06,WSW,248,1.1,5.1,72,0.00,,,0.00,WUHU216HW,2013-05-08 13:30:00,
2013-05-08 09:35:00,65.7,56.4,30.06,West,270,1.1,3.1,72,0.00,,,0.00,WUHU216HW,2013-05-08 13:35:00,
2013-05-08 09:40:00,65.9,56.3,30.05,West,270,0.9,1.1,71,0.00,,,0.00,WUHU216HW,2013-05-08 13:40:00,
2013-05-08 09:46:00,67.0,58.1,30.05,WSW,248,3.0,3.1,73,0.00,,,0.00,WUHU216HW,2013-05-08 13:46:00,
2013-05-08 09:51:00,68.0,58.3,30.05,SSW,208,1.5,3.1,71,0.00,,,0.00,WUHU216HW,2013-05-08 13:51:00,
2013-05-08 09:56:00,68.4,57.9,30.06,NNW,338,0.0,2.2,69,0.00,,,0.00,WUHU216HW,2013-05-08 13:56:00,
2013-05-08 10:01:00,68.8,57.3,30.06,NNW,338,0.9,0.9,67,0.00,,,0.00,WUHU216HW,2013-05-08 14:01:00,
2013-05-08 10:06:00,69.5,58.0,30.05,West,270,1.6,2.7,67,0.00,,,0.00,WUHU216HW,2013-05-08 14:06:00,
2013-05-08 10:11:00,70.4,58.4,30.06,SE,135,0.7,2.7,66,0.00,,,0.00,WUHU216HW,2013-05-08 14:11:00,
2013-05-08 10:16:00,72.4,60.0,30.06,WSW,238,2.8,3.8,65,0.00,,,0.00,WUHU216HW,2013-05-08 14:16:00,
2013-05-08 10:21:00,73.3,58.5,30.06,NW,315,2.7,3.8,60,0.00,,,0.00,WUHU216HW,2013-05-08 14:21:00,
2013-05-08 10:27:00,72.9,57.7,30.06,WSW,248,3.6,3.6,59,0.00,,,0.00,WUHU216HW,2013-05-08 14:27:00,
2013-05-08 10:32:00,71.8,57.3,30.06,WSW,248,3.8,3.8,60,0.00,,,0.00,WUHU216HW,2013-05-08 14:32:00,
2013-05-08 10:37:00,71.6,57.1,30.06,WSW,248,3.4,3.8,60,0.00,,,0.00,WUHU216HW,2013-05-08 14:37:00,
2013-05-08 10:42:00,71.8,56.7,30.06,SW,225,0.7,3.8,59,0.00,,,0.00,WUHU216HW,2013-05-08 14:42:00,
2013-05-08 10:47:00,73.1,58.8,30.05,SW,225,4.7,4.7,61,0.00,,,0.00,WUHU216HW,2013-05-08 14:47:00,
2013-05-08 10:52:00,74.0,59.7,30.06,WSW,248,3.6,4.7,61,0.00,,,0.00,WUHU216HW,2013-05-08 14:52:00,
2013-05-08 10:57:00,74.2,56.9,30.06,NW,315,4.7,4.7,55,0.00,,,0.00,WUHU216HW,2013-05-08 14:57:00,
2013-05-08 11:02:00,74.2,57.4,30.06,WSW,248,6.0,6.0,56,0.00,,,0.00,WUHU216HW,2013-05-08 15:02:00,
2013-05-08 11:08:00,74.5,57.8,30.05,SSE,158,8.7,8.7,56,0.00,,,0.00,WUHU216HW,2013-05-08 15:08:00,
2013-05-08 11:13:00,76.3,58.4,30.06,WNW,293,5.4,8.7,54,0.00,,,0.00,WUHU216HW,2013-05-08 15:13:00,
2013-05-08 11:18:00,75.2,57.4,30.06,South,180,5.4,8.7,54,0.00,,,0.00,WUHU216HW,2013-05-08 15:18:00,
2013-05-08 11:23:00,74.3,57.6,30.06,SW,229,4.6,5.4,56,0.00,,,0.00,WUHU216HW,2013-05-08 15:23:00,
2013-05-08 11:28:00,74.0,56.7,30.06,WSW,248,5.6,5.6,55,0.00,,,0.00,WUHU216HW,2013-05-08 15:28:00,
2013-05-08 11:33:00,74.0,57.3,30.05,WSW,248,4.7,5.6,56,0.00,,,0.00,WUHU216HW,2013-05-08 15:33:00,
2013-05-08 11:38:00,74.2,58.4,30.05,South,180,0.9,5.6,58,0.00,,,0.00,WUHU216HW,2013-05-08 15:38:00,
2013-05-08 11:43:00,75.2,58.0,30.05,West,270,6.9,6.9,55,0.00,,,0.00,WUHU216HW,2013-05-08 15:43:00,
2013-05-08 11:49:00,75.6,59.3,30.06,WSW,248,3.6,6.9,57,0.00,,,0.00,WUHU216HW,2013-05-08 15:49:00,
2013-05-08 11:54:00,76.0,59.6,30.06,South,180,3.8,6.9,57,0.00,,,0.00,WUHU216HW,2013-05-08 15:54:00,
2013-05-08 11:59:00,76.1,59.3,30.06,West,270,6.3,6.3,56,0.00,,,0.00,WUHU216HW,2013-05-08 15:59:00,
2013-05-08 12:04:00,76.3,60.5,30.06,SW,225,5.4,6.3,58,0.00,,,0.00,WUHU216HW,2013-05-08 16:04:00,
2013-05-08 12:09:00,77.0,60.1,30.06,West,269,5.7,6.3,56,0.00,,,0.00,WUHU216HW,2013-05-08 16:09:00,
2013-05-08 12:14:00,77.6,60.6,30.05,WSW,248,6.3,6.3,56,0.00,,,0.00,WUHU216HW,2013-05-08 16:14:00,
2013-05-08 12:19:00,76.3,56.9,30.06,WNW,282,3.9,6.3,51,0.00,,,0.00,WUHU216HW,2013-05-08 16:19:00,
2013-05-08 12:24:00,75.6,57.2,30.05,WNW,293,5.4,6.3,53,0.00,,,0.00,WUHU216HW,2013-05-08 16:24:00,
2013-05-08 12:29:00,76.0,59.1,30.05,WSW,248,6.5,6.5,56,0.00,,,0.00,WUHU216HW,2013-05-08 16:29:00,
2013-05-08 12:35:00,77.4,60.0,30.05,SSW,203,12.1,12.1,55,0.00,,,0.00,WUHU216HW,2013-05-08 16:35:00,
2013-05-08 12:40:00,77.9,60.5,30.05,WSW,248,10.3,12.1,55,0.00,,,0.00,WUHU216HW,2013-05-08 16:40:00,
2013-05-08 12:45:00,77.8,58.8,30.05,WSW,248,8.1,12.1,52,0.00,,,0.00,WUHU216HW,2013-05-08 16:45:00,
2013-05-08 12:50:00,76.7,57.2,30.05,WNW,293,6.0,10.3,51,0.00,,,0.00,WUHU216HW,2013-05-08 16:50:00,
2013-05-08 12:55:00,74.9,57.6,30.05,WSW,248,8.8,8.9,55,0.00,,,0.00,WUHU216HW,2013-05-08 16:55:00,
2013-05-08 13:00:00,73.8,57.1,30.05,West,270,8.3,8.9,56,0.00,,,0.00,WUHU216HW,2013-05-08 17:00:00,
2013-05-08 13:05:00,73.8,58.5,30.05,WNW,290,5.7,8.3,59,0.00,,,0.00,WUHU216HW,2013-05-08 17:05:00,
2013-05-08 13:10:00,74.0,58.2,30.05,WSW,248,8.5,8.5,58,0.00,,,0.00,WUHU216HW,2013-05-08 17:10:00,
2013-05-08 13:15:00,73.4,57.2,30.05,WSW,242,7.5,10.3,57,0.00,,,0.00,WUHU216HW,2013-05-08 17:15:00,
2013-05-08 13:21:00,73.8,58.1,30.05,WSW,248,5.1,10.3,58,0.00,,,0.00,WUHU216HW,2013-05-08 17:21:00,
2013-05-08 13:26:00,74.7,59.4,30.05,SE,135,4.7,5.1,59,0.00,,,0.00,WUHU216HW,2013-05-08 17:26:00,
2013-05-08 13:31:00,75.1,59.3,30.05,South,180,4.7,5.1,58,0.00,,,0.00,WUHU216HW,2013-05-08 17:31:00,
2013-05-08 13:36:00,75.8,58.4,30.05,WSW,248,12.3,12.3,55,0.00,,,0.00,WUHU216HW,2013-05-08 17:36:00,
2013-05-08 13:41:00,75.6,58.3,30.05,West,268,9.5,12.8,55,0.00,,,0.00,WUHU216HW,2013-05-08 17:41:00,
2013-05-08 13:46:00,76.0,58.2,30.05,West,270,7.8,12.8,54,0.00,,,0.00,WUHU216HW,2013-05-08 17:46:00,
2013-05-08 13:51:00,75.8,57.4,30.05,WSW,248,7.4,7.8,53,0.00,,,0.00,WUHU216HW,2013-05-08 17:51:00,
2013-05-08 13:56:00,76.1,58.2,30.05,West,270,3.4,7.8,54,0.00,,,0.00,WUHU216HW,2013-05-08 17:56:00,
2013-05-08 14:02:00,76.7,58.8,30.04,WSW,248,8.7,8.7,54,0.00,,,0.00,WUHU216HW,2013-05-08 18:02:00,
2013-05-08 14:07:00,76.9,57.9,30.04,West,265,5.6,8.7,52,0.00,,,0.00,WUHU216HW,2013-05-08 18:07:00,
2013-05-08 14:12:00,76.5,58.1,30.04,WSW,248,4.0,8.7,53,0.00,,,0.00,WUHU216HW,2013-05-08 18:12:00,
2013-05-08 14:17:00,76.1,57.2,30.04,WSW,248,6.3,6.3,52,0.00,,,0.00,WUHU216HW,2013-05-08 18:17:00,
2013-05-08 14:22:00,76.1,57.2,30.04,WSW,248,6.5,6.5,52,0.00,,,0.00,WUHU216HW,2013-05-08 18:22:00,
2013-05-08 14:27:00,76.1,57.8,30.03,SW,225,4.9,6.5,53,0.00,,,0.00,WUHU216HW,2013-05-08 18:27:00,
2013-05-08 14:32:00,76.9,59.4,30.03,WSW,248,8.7,8.7,55,0.00,,,0.00,WUHU216HW,2013-05-08 18:32:00,
2013-05-08 14:37:00,77.4,59.0,30.03,West,270,6.3,8.7,53,0.00,,,0.00,WUHU216HW,2013-05-08 18:37:00,
2013-05-08 14:42:00,76.7,58.8,30.03,West,268,3.4,8.7,54,0.00,,,0.00,WUHU216HW,2013-05-08 18:42:00,
2013-05-08 14:48:00,77.0,59.0,30.03,SSW,203,5.6,6.3,54,0.00,,,0.00,WUHU216HW,2013-05-08 18:48:00,
2013-05-08 14:53:00,77.9,59.4,30.03,WSW,248,4.0,5.6,53,0.00,,,0.00,WUHU216HW,2013-05-08 18:53:00,
2013-05-08 14:58:00,78.3,58.2,30.03,West,270,4.3,5.6,50,0.00,,,0.00,WUHU216HW,2013-05-08 18:58:00,
2013-05-08 15:03:00,78.8,57.4,30.03,WSW,248,14.3,14.3,48,0.00,,,0.00,WUHU216HW,2013-05-08 19:03:00,
2013-05-08 15:08:00,78.8,58.1,30.04,WSW,248,10.9,14.3,49,0.00,,,0.00,WUHU216HW,2013-05-08 19:08:00,
2013-05-08 15:13:00,78.7,58.5,30.04,WSW,248,3.4,14.3,50,0.00,,,0.00,WUHU216HW,2013-05-08 19:13:00,
2013-05-08 15:18:00,77.8,57.7,30.04,West,270,8.5,8.9,50,0.00,,,0.00,WUHU216HW,2013-05-08 19:18:00,
2013-05-08 15:23:00,76.1,57.2,30.04,WSW,248,5.6,8.5,52,0.00,,,0.00,WUHU216HW,2013-05-08 19:23:00,
2013-05-08 15:29:00,76.0,57.1,30.03,North,0,6.3,8.5,52,0.00,,,0.00,WUHU216HW,2013-05-08 19:29:00,
2013-05-08 15:34:00,76.0,56.6,30.03,WSW,248,6.7,6.7,51,0.00,,,0.00,WUHU216HW,2013-05-08 19:34:00,
2013-05-08 15:39:00,75.6,56.8,30.03,NW,315,5.4,6.7,52,0.00,,,0.00,WUHU216HW,2013-05-08 19:39:00,
2013-05-08 15:44:00,75.4,56.6,30.03,NW,304,5.3,6.7,52,0.00,,,0.00,WUHU216HW,2013-05-08 19:44:00,
2013-05-08 15:49:00,75.8,56.4,30.03,WSW,253,4.1,5.4,51,0.00,,,0.00,WUHU216HW,2013-05-08 19:49:00,
2013-05-08 15:54:00,76.0,57.6,30.03,NW,315,3.1,5.1,53,0.00,,,0.00,WUHU216HW,2013-05-08 19:54:00,
2013-05-08 15:59:00,75.6,57.2,30.03,West,270,7.4,7.4,53,0.00,,,0.00,WUHU216HW,2013-05-08 19:59:00,
2013-05-08 16:04:00,75.2,56.4,30.03,West,275,4.2,7.4,52,0.00,,,0.00,WUHU216HW,2013-05-08 20:04:00,
2013-05-08 16:09:00,75.2,57.4,30.02,West,270,3.6,7.4,54,0.00,,,0.00,WUHU216HW,2013-05-08 20:09:00,
2013-05-08 16:15:00,75.1,57.2,30.02,West,270,2.5,3.6,54,0.00,,,0.00,WUHU216HW,2013-05-08 20:15:00,
2013-05-08 16:20:00,74.7,56.9,30.02,WNW,290,5.8,6.5,54,0.00,,,0.00,WUHU216HW,2013-05-08 20:20:00,
2013-05-08 16:25:00,74.5,56.7,30.02,WSW,248,4.7,6.5,54,0.00,,,0.00,WUHU216HW,2013-05-08 20:25:00,
2013-05-08 16:30:00,74.7,57.4,30.02,NW,315,3.1,4.7,55,0.00,,,0.00,WUHU216HW,2013-05-08 20:30:00,
2013-05-08 16:35:00,74.9,57.1,30.02,SW,225,4.5,4.7,54,0.00,,,0.00,WUHU216HW,2013-05-08 20:35:00,
2013-05-08 16:40:00,75.6,57.8,30.02,WSW,248,6.3,6.3,54,0.00,,,0.00,WUHU216HW,2013-05-08 20:40:00,
2013-05-08 16:45:00,76.7,58.8,30.02,WSW,248,4.4,6.3,54,0.00,,,0.00,WUHU216HW,2013-05-08 20:45:00,
2013-05-08 16:51:00,77.8,59.8,30.02,NW,315,2.5,6.3,54,0.00,,,0.00,WUHU216HW,2013-05-08 20:51:00,
2013-05-08 16:56:00,77.8,58.2,30.02,WSW,248,3.4,3.8,51,0.00,,,0.00,WUHU216HW,2013-05-08 20:56:00,
2013-05-08 17:01:00,77.4,58.4,30.02,West,270,5.1,5.1,52,0.00,,,0.00,WUHU216HW,2013-05-08 21:01:00,
2013-05-08 17:06:00,76.7,57.2,30.02,West,270,4.5,5.1,51,0.00,,,0.00,WUHU216HW,2013-05-08 21:06:00,
2013-05-08 17:11:00,76.1,57.2,30.02,WSW,248,6.3,6.3,52,0.00,,,0.00,WUHU216HW,2013-05-08 21:11:00,
2013-05-08 17:16:00,75.2,57.0,30.02,WSW,255,3.6,6.3,53,0.00,,,0.00,WUHU216HW,2013-05-08 21:16:00,
2013-05-08 17:21:00,74.9,57.1,30.02,WNW,300,5.4,6.3,54,0.00,,,0.00,WUHU216HW,2013-05-08 21:21:00,
2013-05-08 17:26:00,75.1,57.2,30.02,West,270,2.5,6.3,54,0.00,,,0.00,WUHU216HW,2013-05-08 21:26:00,
2013-05-08 17:31:00,75.2,57.4,30.02,NW,315,5.4,5.4,54,0.00,,,0.00,WUHU216HW,2013-05-08 21:31:00,
2013-05-08 17:37:00,75.1,55.8,30.02,West,270,9.6,9.6,51,0.00,,,0.00,WUHU216HW,2013-05-08 21:37:00,
2013-05-08 17:42:00,75.1,55.8,30.02,West,270,9.6,9.6,51,0.00,,,0.00,WUHU216HW,2013-05-08 21:42:00,
2013-05-08 17:47:00,74.5,55.7,30.02,NW,315,2.9,9.6,52,0.00,,,0.00,WUHU216HW,2013-05-08 21:47:00,
2013-05-08 17:52:00,74.3,56.1,30.02,WSW,248,4.3,4.3,53,0.00,,,0.00,WUHU216HW,2013-05-08 21:52:00,
2013-05-08 17:57:00,74.9,56.1,30.02,West,270,3.4,4.3,52,0.00,,,0.00,WUHU216HW,2013-05-08 21:57:00,
2013-05-08 18:02:00,74.5,56.3,30.02,WSW,248,3.6,4.3,53,0.00,,,0.00,WUHU216HW,2013-05-08 22:02:00,
2013-05-08 18:07:00,74.3,56.1,30.02,West,264,1.6,3.6,53,0.00,,,0.00,WUHU216HW,2013-05-08 22:07:00,
2013-05-08 18:12:00,73.8,55.0,30.02,West,270,4.5,4.5,52,0.00,,,0.00,WUHU216HW,2013-05-08 22:12:00,
2013-05-08 18:17:00,73.4,55.2,30.02,WSW,248,2.7,4.5,53,0.00,,,0.00,WUHU216HW,2013-05-08 22:17:00,
2013-05-08 18:22:00,73.1,55.4,30.02,WSW,256,2.6,4.5,54,0.00,,,0.00,WUHU216HW,2013-05-08 22:22:00,
2013-05-08 18:27:00,72.7,55.0,30.02,NNW,338,3.4,3.4,54,0.00,,,0.00,WUHU216HW,2013-05-08 22:27:00,
2013-05-08 18:32:00,72.7,55.0,30.02,NNW,335,2.4,3.4,54,0.00,,,0.00,WUHU216HW,2013-05-08 22:32:00,
2013-05-08 18:38:00,73.1,55.4,30.02,NNW,338,3.4,3.4,54,0.00,,,0.00,WUHU216HW,2013-05-08 22:38:00,
2013-05-08 18:43:00,73.1,55.4,30.02,NNW,338,3.4,3.4,54,0.00,,,0.00,WUHU216HW,2013-05-08 22:43:00,
2013-05-08 18:48:00,73.6,56.3,30.02,WNW,293,3.4,3.4,55,0.00,,,0.00,WUHU216HW,2013-05-08 22:48:00,
2013-05-08 18:53:00,74.3,57.1,30.02,NW,315,0.4,3.4,55,0.00,,,0.00,WUHU216HW,2013-05-08 22:53:00,
2013-05-08 18:58:00,75.2,57.4,30.02,WSW,248,1.8,3.4,54,0.00,,,0.00,WUHU216HW,2013-05-08 22:58:00,
2013-05-08 19:03:00,76.7,56.7,30.02,WNW,293,3.4,3.4,50,0.00,,,0.00,WUHU216HW,2013-05-08 23:03:00,
2013-05-08 19:08:00,76.0,56.1,30.02,West,278,3.3,3.4,50,0.00,,,0.00,WUHU216HW,2013-05-08 23:08:00,
2013-05-08 19:13:00,74.3,55.5,30.02,West,270,4.9,4.9,52,0.00,,,0.00,WUHU216HW,2013-05-08 23:13:00,
2013-05-08 19:19:00,73.4,55.2,30.03,WNW,300,1.0,4.9,53,0.00,,,0.00,WUHU216HW,2013-05-08 23:19:00,
2013-05-08 19:24:00,73.1,54.8,30.03,NW,315,0.9,4.9,53,0.00,,,0.00,WUHU216HW,2013-05-08 23:24:00,
2013-05-08 19:29:00,72.5,54.8,30.03,West,270,0.0,0.9,54,0.00,,,0.00,WUHU216HW,2013-05-08 23:29:00,
2013-05-08 19:34:00,72.2,55.0,30.03,NNW,338,0.4,0.9,55,0.00,,,0.00,WUHU216HW,2013-05-08 23:34:00,
2013-05-08 19:39:00,71.8,55.2,30.04,NNW,338,0.2,0.4,56,0.00,,,0.00,WUHU216HW,2013-05-08 23:39:00,
2013-05-08 19:44:00,71.1,55.1,30.04,ENE,68,0.0,0.4,57,0.00,,,0.00,WUHU216HW,2013-05-08 23:44:00,
2013-05-08 19:49:00,70.9,55.5,30.04,ENE,68,0.0,0.2,58,0.00,,,0.00,WUHU216HW,2013-05-08 23:49:00,
2013-05-08 19:54:00,70.6,55.6,30.04,WNW,293,0.0,0.0,59,0.00,,,0.00,WUHU216HW,2013-05-08 23:54:00,
2013-05-08 19:59:00,70.4,54.9,30.04,WNW,293,0.0,0.0,58,0.00,,,0.00,WUHU216HW,2013-05-08 23:59:00,
2013-05-08 20:04:00,69.7,54.7,30.05,North,0,0.0,0.0,59,0.00,,,0.00,WUHU216HW,2013-05-09 00:04:00,
2013-05-08 20:10:00,69.5,55.1,30.05,North,0,0.2,0.2,60,0.00,,,0.00,WUHU216HW,2013-05-09 00:10:00,
2013-05-08 20:15:00,69.5,55.1,30.05,North,0,0.0,0.2,60,0.00,,,0.00,WUHU216HW,2013-05-09 00:15:00,
2013-05-08 20:20:00,69.1,54.7,30.05,West,270,0.0,0.2,60,0.00,,,0.00,WUHU216HW,2013-05-09 00:20:00,
2013-05-08 20:25:00,69.1,55.2,30.05,WSW,248,0.4,0.4,61,0.00,,,0.00,WUHU216HW,2013-05-09 00:25:00,
2013-05-08 20:30:00,68.9,55.4,30.05,West,270,0.0,0.4,62,0.00,,,0.00,WUHU216HW,2013-05-09 00:30:00,
2013-05-08 20:35:00,68.8,55.2,30.06,NW,315,0.4,0.4,62,0.00,,,0.00,WUHU216HW,2013-05-09 00:35:00,
2013-05-08 20:40:00,68.6,55.4,30.06,NW,315,0.0,0.4,63,0.00,,,0.00,WUHU216HW,2013-05-09 00:40:00,
2013-05-08 20:45:00,68.4,55.3,30.06,North,0,0.0,0.4,63,0.00,,,0.00,WUHU216HW,2013-05-09 00:45:00,
2013-05-08 20:50:00,67.7,54.6,30.06,NW,315,0.0,0.0,63,0.00,,,0.00,WUHU216HW,2013-05-09 00:50:00,
2013-05-08 20:56:00,67.5,54.9,30.06,NNE,23,0.7,0.7,64,0.00,,,0.00,WUHU216HW,2013-05-09 00:56:00,
2013-05-08 21:01:00,67.3,54.7,30.07,NNE,23,0.7,0.7,64,0.00,,,0.00,WUHU216HW,2013-05-09 01:01:00,
2013-05-08 21:06:00,67.1,54.6,30.07,NNE,23,0.0,0.7,64,0.00,,,0.00,WUHU216HW,2013-05-09 01:06:00,
2013-05-08 21:11:00,67.0,54.8,30.07,NW,315,0.0,0.0,65,0.00,,,0.00,WUHU216HW,2013-05-09 01:11:00,
2013-05-08 21:16:00,66.8,55.0,30.07,NW,315,0.0,0.0,66,0.00,,,0.00,WUHU216HW,2013-05-09 01:16:00,
2013-05-08 21:21:00,66.6,54.5,30.07,West,270,0.0,0.0,65,0.00,,,0.00,WUHU216HW,2013-05-09 01:21:00,
2013-05-08 21:26:00,66.6,54.8,30.07,NW,315,1.1,1.1,66,0.00,,,0.00,WUHU216HW,2013-05-09 01:26:00,
2013-05-08 21:31:00,66.6,54.8,30.07,NNW,338,0.9,1.1,66,0.00,,,0.00,WUHU216HW,2013-05-09 01:31:00,
2013-05-08 21:37:00,66.6,54.8,30.07,ENE,68,0.0,1.1,66,0.00,,,0.00,WUHU216HW,2013-05-09 01:37:00,
2013-05-08 21:42:00,66.6,54.8,30.07,WNW,293,0.0,0.9,66,0.00,,,0.00,WUHU216HW,2013-05-09 01:42:00,
2013-05-08 21:47:00,66.4,55.5,30.07,WNW,293,0.4,0.4,68,0.00,,,0.00,WUHU216HW,2013-05-09 01:47:00,
2013-05-08 21:52:00,66.2,54.9,30.07,WNW,293,0.4,0.4,67,0.00,,,0.00,WUHU216HW,2013-05-09 01:52:00,
2013-05-08 21:57:00,66.1,55.2,30.08,NW,315,1.8,1.8,68,0.00,,,0.00,WUHU216HW,2013-05-09 01:57:00,
2013-05-08 22:02:00,65.7,55.3,30.08,North,352,1.0,1.8,69,0.00,,,0.00,WUHU216HW,2013-05-09 02:02:00,
2013-05-08 22:07:00,65.5,54.6,30.08,WSW,248,0.9,1.8,68,0.00,,,0.00,WUHU216HW,2013-05-09 02:07:00,
2013-05-08 22:12:00,65.5,54.6,30.09,West,270,0.9,0.9,68,0.00,,,0.00,WUHU216HW,2013-05-09 02:12:00,
2013-05-08 22:18:00,65.5,54.6,30.09,West,270,0.9,0.9,68,0.00,,,0.00,WUHU216HW,2013-05-09 02:18:00,
2013-05-08 22:23:00,65.2,54.7,30.09,NNW,338,1.1,1.1,69,0.00,,,0.00,WUHU216HW,2013-05-09 02:23:00,
2013-05-08 22:28:00,65.2,54.7,30.09,NNW,338,1.1,1.1,69,0.00,,,0.00,WUHU216HW,2013-05-09 02:28:00,
2013-05-08 22:33:00,65.3,54.6,30.09,West,270,1.8,1.8,68,0.00,,,0.00,WUHU216HW,2013-05-09 02:33:00,
2013-05-08 22:38:00,65.3,54.1,30.09,WNW,293,1.6,1.8,67,0.00,,,0.00,WUHU216HW,2013-05-09 02:38:00,
2013-05-08 22:43:00,65.2,53.9,30.09,NW,315,1.3,1.8,67,0.00,,,0.00,WUHU216HW,2013-05-09 02:43:00,
2013-05-08 22:48:00,65.0,54.2,30.09,West,270,1.1,1.6,68,0.00,,,0.00,WUHU216HW,2013-05-09 02:48:00,
2013-05-08 22:53:00,64.8,54.0,30.09,West,270,1.6,1.6,68,0.00,,,0.00,WUHU216HW,2013-05-09 02:53:00,
2013-05-08 22:58:00,64.4,54.1,30.09,NNW,338,0.4,1.6,69,0.00,,,0.00,WUHU216HW,2013-05-09 02:58:00,
2013-05-08 23:04:00,64.1,53.7,30.09,NNW,338,0.4,1.6,69,0.00,,,0.00,WUHU216HW,2013-05-09 03:04:00,
2013-05-08 23:09:00,63.7,53.4,30.09,North,0,0.4,0.4,69,0.00,,,0.00,WUHU216HW,2013-05-09 03:09:00,
2013-05-08 23:14:00,63.5,53.2,30.09,North,0,0.4,0.4,69,0.00,,,0.00,WUHU216HW,2013-05-09 03:14:00,
2013-05-08 23:19:00,63.2,53.3,30.09,NE,45,0.4,0.4,70,0.00,,,0.00,WUHU216HW,2013-05-09 03:19:00,
2013-05-08 23:24:00,62.8,52.9,30.09,NNE,23,0.0,0.4,70,0.00,,,0.00,WUHU216HW,2013-05-09 03:24:00,
2013-05-08 23:29:00,62.3,52.7,30.09,NNW,338,0.0,0.4,71,0.00,,,0.00,WUHU216HW,2013-05-09 03:29:00,
2013-05-08 23:34:00,61.9,52.8,30.09,West,270,2.2,2.2,72,0.00,,,0.00,WUHU216HW,2013-05-09 03:34:00,
2013-05-08 23:39:00,62.1,53.4,30.09,WNW,293,0.7,2.2,73,0.00,,,0.00,WUHU216HW,2013-05-09 03:39:00,
2013-05-08 23:44:00,62.5,53.3,30.09,NNW,338,0.4,2.2,72,0.00,,,0.00,WUHU216HW,2013-05-09 03:44:00,
2013-05-08 23:49:00,62.5,53.6,30.09,ESE,113,1.1,1.1,73,0.00,,,0.00,WUHU216HW,2013-05-09 03:49:00,
2013-05-08 23:55:00,62.3,53.5,30.09,SE,135,0.0,1.1,73,0.00,,,0.00,WUHU216HW,2013-05-09 03:55:00,